El Tor, Egypt
Current Conditions -  °F | °C
As of 11:00 AM on Wednesday 28 Jan 2015 (Local Time) from HESC Reporting Station
Overcast Overcast  
Wind Chill: 59°   Ceiling: 20000
Heat Index: 59°   Visibility: 4mi
Dew Point: 48°   Wind: 9mph
Humidity: 67%   Direction: 10°N
Pressure: 30.09"   Gusts: NA
Location:  28.21°N, 33.64°E
Report Text: HESC 280900Z 01008KT 6000 FEW020 OVC200 15/09 Q1019 NOSIG
Loading
Personal Weather Stations






























Interactive Weather Map New forecast layout! Learn more

10-Day Weather Forecast

Advertisements
Track Severe Weather on mobile